sensor_id;sensor_type;location;lat;lon;timestamp;pressure;altitude;pressure_sealevel;temperature;humidity
81812;BME280;71243;51.848;5.768;2023-07-20T00:01:13;101443.97;;;18.87;74.08
81812;BME280;71243;51.848;5.768;2023-07-20T00:03:39;101449.59;;;18.92;73.51
81812;BME280;71243;51.848;5.768;2023-07-20T00:06:04;101447.09;;;18.91;74.05
81812;BME280;71243;51.848;5.768;2023-07-20T00:08:30;101443.81;;;18.74;74.21
81812;BME280;71243;51.848;5.768;2023-07-20T00:10:55;101439.94;;;18.77;74.41
81812;BME280;71243;51.848;5.768;2023-07-20T00:13:20;101443.91;;;18.81;74.01
81812;BME280;71243;51.848;5.768;2023-07-20T00:15:46;101450.09;;;18.81;74.29
81812;BME280;71243;51.848;5.768;2023-07-20T00:18:11;101448.88;;;18.84;73.63
81812;BME280;71243;51.848;5.768;2023-07-20T00:20:36;101451.34;;;18.85;73.46
81812;BME280;71243;51.848;5.768;2023-07-20T00:23:01;101453.22;;;18.85;74.47
81812;BME280;71243;51.848;5.768;2023-07-20T00:25:26;101451.53;;;18.84;74.46
81812;BME280;71243;51.848;5.768;2023-07-20T00:27:52;101455.16;;;18.76;74.79
81812;BME280;71243;51.848;5.768;2023-07-20T00:30:17;101463.22;;;18.47;75.71
81812;BME280;71243;51.848;5.768;2023-07-20T00:32:43;101461.72;;;18.44;76.05
81812;BME280;71243;51.848;5.768;2023-07-20T00:35:08;101462.81;;;18.35;76.41
81812;BME280;71243;51.848;5.768;2023-07-20T00:37:34;101452.13;;;18.35;75.63
81812;BME280;71243;51.848;5.768;2023-07-20T00:39:59;101457.00;;;18.32;76.22
81812;BME280;71243;51.848;5.768;2023-07-20T00:42:24;101453.88;;;18.28;75.60
81812;BME280;71243;51.848;5.768;2023-07-20T00:44:50;101464.84;;;18.33;75.59
81812;BME280;71243;51.848;5.768;2023-07-20T00:47:15;101460.41;;;18.26;75.19
81812;BME280;71243;51.848;5.768;2023-07-20T00:49:40;101459.22;;;18.28;75.32
81812;BME280;71243;51.848;5.768;2023-07-20T00:52:06;101459.91;;;18.08;75.43
81812;BME280;71243;51.848;5.768;2023-07-20T00:54:33;101463.31;;;18.02;75.50
81812;BME280;71243;51.848;5.768;2023-07-20T00:56:58;101467.41;;;17.90;76.37
81812;BME280;71243;51.848;5.768;2023-07-20T00:59:26;101459.53;;;17.51;76.89
81812;BME280;71243;51.848;5.768;2023-07-20T01:01:51;101458.31;;;17.31;76.98
81812;BME280;71243;51.848;5.768;2023-07-20T01:04:17;101461.47;;;17.34;77.64
81812;BME280;71243;51.848;5.768;2023-07-20T01:06:53;101458.53;;;17.21;78.41
81812;BME280;71243;51.848;5.768;2023-07-20T01:09:30;101468.72;;;17.26;78.39
81812;BME280;71243;51.848;5.768;2023-07-20T01:12:07;101468.72;;;17.26;78.14
81812;BME280;71243;51.848;5.768;2023-07-20T01:14:34;101464.19;;;17.26;78.24
81812;BME280;71243;51.848;5.768;2023-07-20T01:16:59;101464.72;;;17.22;77.51
81812;BME280;71243;51.848;5.768;2023-07-20T01:19:24;101462.50;;;17.03;77.32
81812;BME280;71243;51.848;5.768;2023-07-20T01:22:01;101471.84;;;16.99;77.93
81812;BME280;71243;51.848;5.768;2023-07-20T01:32:47;101475.00;;;16.72;79.51
81812;BME280;71243;51.848;5.768;2023-07-20T01:35:14;101476.03;;;16.63;79.85
81812;BME280;71243;51.848;5.768;2023-07-20T01:37:43;101479.72;;;16.54;79.02
81812;BME280;71243;51.848;5.768;2023-07-20T01:40:10;101477.16;;;16.68;79.10
81812;BME280;71243;51.848;5.768;2023-07-20T01:42:35;101478.28;;;16.82;79.23
81812;BME280;71243;51.848;5.768;2023-07-20T01:45:01;101474.41;;;16.84;78.46
81812;BME280;71243;51.848;5.768;2023-07-20T01:47:26;101469.72;;;16.94;78.70
81812;BME280;71243;51.848;5.768;2023-07-20T01:49:51;101470.22;;;16.98;78.10
81812;BME280;71243;51.848;5.768;2023-07-20T01:52:16;101480.31;;;17.10;78.01
81812;BME280;71243;51.848;5.768;2023-07-20T01:54:42;101482.66;;;17.05;78.10
81812;BME280;71243;51.848;5.768;2023-07-20T01:57:07;101476.50;;;17.05;77.77
81812;BME280;71243;51.848;5.768;2023-07-20T01:59:32;101481.94;;;16.81;78.08
81812;BME280;71243;51.848;5.768;2023-07-20T02:01:57;101476.44;;;16.82;79.77
81812;BME280;71243;51.848;5.768;2023-07-20T02:04:22;101474.28;;;16.86;78.74
81812;BME280;71243;51.848;5.768;2023-07-20T02:06:48;101479.75;;;16.84;78.02
81812;BME280;71243;51.848;5.768;2023-07-20T02:09:13;101475.47;;;16.75;78.37
81812;BME280;71243;51.848;5.768;2023-07-20T02:11:38;101476.50;;;16.66;77.25
81812;BME280;71243;51.848;5.768;2023-07-20T02:14:03;101470.88;;;16.53;77.45
81812;BME280;71243;51.848;5.768;2023-07-20T02:16:29;101472.88;;;16.43;78.14
81812;BME280;71243;51.848;5.768;2023-07-20T02:18:54;101483.88;;;16.40;78.72
81812;BME280;71243;51.848;5.768;2023-07-20T02:21:19;101480.38;;;16.39;78.60
81812;BME280;71243;51.848;5.768;2023-07-20T02:23:45;101489.41;;;16.30;78.60
81812;BME280;71243;51.848;5.768;2023-07-20T02:26:10;101476.88;;;16.39;78.68
81812;BME280;71243;51.848;5.768;2023-07-20T02:28:35;101490.41;;;16.21;79.93
81812;BME280;71243;51.848;5.768;2023-07-20T02:31:00;101499.25;;;16.22;79.12
81812;BME280;71243;51.848;5.768;2023-07-20T02:33:26;101491.25;;;16.22;79.25
81812;BME280;71243;51.848;5.768;2023-07-20T02:35:51;101492.06;;;16.30;78.82
81812;BME280;71243;51.848;5.768;2023-07-20T02:38:16;101493.41;;;16.34;79.15
81812;BME280;71243;51.848;5.768;2023-07-20T02:40:41;101485.56;;;16.33;78.52
81812;BME280;71243;51.848;5.768;2023-07-20T02:43:07;101484.91;;;16.31;78.79
81812;BME280;71243;51.848;5.768;2023-07-20T02:45:32;101483.91;;;16.16;79.21
81812;BME280;71243;51.848;5.768;2023-07-20T02:47:57;101488.28;;;16.17;79.10
81812;BME280;71243;51.848;5.768;2023-07-20T02:50:22;101491.75;;;16.25;79.11
81812;BME280;71243;51.848;5.768;2023-07-20T02:52:47;101495.06;;;16.19;78.90
81812;BME280;71243;51.848;5.768;2023-07-20T02:55:13;101500.41;;;16.27;78.31
81812;BME280;71243;51.848;5.768;2023-07-20T02:57:38;101497.25;;;16.24;78.84
81812;BME280;71243;51.848;5.768;2023-07-20T03:00:04;101495.06;;;16.19;78.95
81812;BME280;71243;51.848;5.768;2023-07-20T03:02:29;101510.75;;;16.30;77.91
81812;BME280;71243;51.848;5.768;2023-07-20T03:04:55;101501.91;;;16.30;78.12
81812;BME280;71243;51.848;5.768;2023-07-20T03:07:20;101509.56;;;16.41;77.63
81812;BME280;71243;51.848;5.768;2023-07-20T03:09:45;101515.56;;;16.51;77.41
81812;BME280;71243;51.848;5.768;2023-07-20T03:12:10;101516.91;;;16.55;77.12
81812;BME280;71243;51.848;5.768;2023-07-20T03:14:36;101522.38;;;16.62;77.04
81812;BME280;71243;51.848;5.768;2023-07-20T03:17:01;101528.19;;;16.65;76.54
81812;BME280;71243;51.848;5.768;2023-07-20T03:19:26;101526.19;;;16.67;76.26
81812;BME280;71243;51.848;5.768;2023-07-20T03:21:51;101529.72;;;16.68;76.22
81812;BME280;71243;51.848;5.768;2023-07-20T03:24:16;101537.22;;;16.64;76.64
81812;BME280;71243;51.848;5.768;2023-07-20T03:26:42;101529.88;;;16.58;76.00
81812;BME280;71243;51.848;5.768;2023-07-20T03:29:07;101535.72;;;16.45;77.36
81812;BME280;71243;51.848;5.768;2023-07-20T03:31:32;101535.38;;;16.40;77.51
81812;BME280;71243;51.848;5.768;2023-07-20T03:33:58;101534.91;;;16.45;77.09
81812;BME280;71243;51.848;5.768;2023-07-20T03:36:23;101525.38;;;16.51;77.17
81812;BME280;71243;51.848;5.768;2023-07-20T03:38:48;101519.22;;;16.58;76.46
81812;BME280;71243;51.848;5.768;2023-07-20T03:41:13;101516.19;;;16.61;76.39
81812;BME280;71243;51.848;5.768;2023-07-20T03:43:38;101523.03;;;16.64;76.16
81812;BME280;71243;51.848;5.768;2023-07-20T03:46:04;101525.72;;;16.64;76.29
81812;BME280;71243;51.848;5.768;2023-07-20T03:48:29;101524.69;;;16.65;76.14
81812;BME280;71243;51.848;5.768;2023-07-20T03:50:54;101529.88;;;16.66;75.96
81812;BME280;71243;51.848;5.768;2023-07-20T03:53:19;101527.22;;;16.58;76.33
81812;BME280;71243;51.848;5.768;2023-07-20T03:55:46;101529.06;;;16.50;76.70
81812;BME280;71243;51.848;5.768;2023-07-20T03:58:12;101528.56;;;16.54;76.79
81812;BME280;71243;51.848;5.768;2023-07-20T04:00:37;101536.91;;;16.59;76.39
81812;BME280;71243;51.848;5.768;2023-07-20T04:03:03;101536.06;;;16.59;76.94
81812;BME280;71243;51.848;5.768;2023-07-20T04:05:28;101531.38;;;16.61;76.23
81812;BME280;71243;51.848;5.768;2023-07-20T04:07:53;101530.56;;;16.60;76.14
81812;BME280;71243;51.848;5.768;2023-07-20T04:10:19;101536.72;;;16.61;76.68
81812;BME280;71243;51.848;5.768;2023-07-20T04:12:45;101541.88;;;16.62;76.19
81812;BME280;71243;51.848;5.768;2023-07-20T04:15:11;101535.03;;;16.60;75.98
81812;BME280;71243;51.848;5.768;2023-07-20T04:17:36;101537.72;;;16.60;76.55
81812;BME280;71243;51.848;5.768;2023-07-20T04:20:01;101545.53;;;16.61;76.33
81812;BME280;71243;51.848;5.768;2023-07-20T04:22:28;101539.56;;;16.59;76.87
81812;BME280;71243;51.848;5.768;2023-07-20T04:24:53;101548.06;;;16.63;76.24
81812;BME280;71243;51.848;5.768;2023-07-20T04:27:18;101545.41;;;16.63;76.28
81812;BME280;71243;51.848;5.768;2023-07-20T04:29:43;101541.56;;;16.57;76.11
81812;BME280;71243;51.848;5.768;2023-07-20T04:32:09;101552.56;;;16.54;76.36
81812;BME280;71243;51.848;5.768;2023-07-20T04:34:34;101549.56;;;16.57;76.68
81812;BME280;71243;51.848;5.768;2023-07-20T04:36:59;101556.75;;;16.57;76.55
81812;BME280;71243;51.848;5.768;2023-07-20T04:39:24;101555.56;;;16.51;77.16
81812;BME280;71243;51.848;5.768;2023-07-20T04:41:49;101557.75;;;16.56;77.38
81812;BME280;71243;51.848;5.768;2023-07-20T04:44:15;101560.75;;;16.61;77.53
81812;BME280;71243;51.848;5.768;2023-07-20T04:46:40;101561.41;;;16.63;77.02
81812;BME280;71243;51.848;5.768;2023-07-20T04:49:05;101556.88;;;16.63;77.12
81812;BME280;71243;51.848;5.768;2023-07-20T04:51:31;101569.06;;;16.66;77.10
81812;BME280;71243;51.848;5.768;2023-07-20T04:53:56;101567.91;;;16.60;77.36
81812;BME280;71243;51.848;5.768;2023-07-20T04:56:21;101570.56;;;16.60;77.33
81812;BME280;71243;51.848;5.768;2023-07-20T04:58:46;101568.56;;;16.62;77.04
81812;BME280;71243;51.848;5.768;2023-07-20T05:01:12;101567.91;;;16.60;77.12
81812;BME280;71243;51.848;5.768;2023-07-20T05:03:37;101566.41;;;16.66;77.22
81812;BME280;71243;51.848;5.768;2023-07-20T05:06:02;101570.06;;;16.73;77.19
81812;BME280;71243;51.848;5.768;2023-07-20T05:08:27;101567.38;;;16.73;77.04
81812;BME280;71243;51.848;5.768;2023-07-20T05:10:53;101567.34;;;16.81;76.75
81812;BME280;71243;51.848;5.768;2023-07-20T05:13:18;101573.53;;;16.81;76.99
81812;BME280;71243;51.848;5.768;2023-07-20T05:15:43;101571.41;;;16.61;77.99
81812;BME280;71243;51.848;5.768;2023-07-20T05:18:08;101565.41;;;16.59;78.24
81812;BME280;71243;51.848;5.768;2023-07-20T05:20:34;101563.41;;;16.61;78.25
81812;BME280;71243;51.848;5.768;2023-07-20T05:23:00;101567.91;;;16.60;78.32
81812;BME280;71243;51.848;5.768;2023-07-20T05:25:25;101566.75;;;16.63;77.57
81812;BME280;71243;51.848;5.768;2023-07-20T05:27:51;101569.41;;;16.55;77.82
81812;BME280;71243;51.848;5.768;2023-07-20T05:30:16;101570.22;;;16.63;77.52
81812;BME280;71243;51.848;5.768;2023-07-20T05:32:42;101564.88;;;16.63;77.80
81812;BME280;71243;51.848;5.768;2023-07-20T05:35:08;101573.06;;;16.70;77.50
81812;BME280;71243;51.848;5.768;2023-07-20T05:37:33;101575.22;;;16.74;77.42
81812;BME280;71243;51.848;5.768;2023-07-20T05:39:58;101574.56;;;16.80;77.37
81812;BME280;71243;51.848;5.768;2023-07-20T05:42:23;101581.06;;;16.70;77.66
81812;BME280;71243;51.848;5.768;2023-07-20T05:44:49;101576.91;;;16.67;77.97
81812;BME280;71243;51.848;5.768;2023-07-20T05:47:14;101584.41;;;16.72;77.62
81812;BME280;71243;51.848;5.768;2023-07-20T05:49:39;101576.53;;;16.70;77.05
81812;BME280;71243;51.848;5.768;2023-07-20T05:52:05;101580.72;;;16.65;77.36
81812;BME280;71243;51.848;5.768;2023-07-20T05:54:30;101588.44;;;16.52;77.40
81812;BME280;71243;51.848;5.768;2023-07-20T05:56:55;101577.25;;;16.64;77.36
81812;BME280;71243;51.848;5.768;2023-07-20T05:59:20;101585.41;;;16.79;76.72
81812;BME280;71243;51.848;5.768;2023-07-20T06:01:46;101582.38;;;16.82;77.37
81812;BME280;71243;51.848;5.768;2023-07-20T06:04:11;101581.69;;;16.88;75.16
81812;BME280;71243;51.848;5.768;2023-07-20T06:06:36;101589.72;;;16.80;74.10
81812;BME280;71243;51.848;5.768;2023-07-20T06:09:02;101579.72;;;16.74;73.24
81812;BME280;71243;51.848;5.768;2023-07-20T06:11:27;101573.22;;;16.76;73.78
81812;BME280;71243;51.848;5.768;2023-07-20T06:13:52;101589.41;;;16.75;75.11
81812;BME280;71243;51.848;5.768;2023-07-20T06:16:17;101591.41;;;16.73;75.33
81812;BME280;71243;51.848;5.768;2023-07-20T06:18:43;101593.06;;;16.82;73.84
81812;BME280;71243;51.848;5.768;2023-07-20T06:21:08;101596.50;;;16.98;73.54
81812;BME280;71243;51.848;5.768;2023-07-20T06:23:33;101593.59;;;17.16;71.04
81812;BME280;71243;51.848;5.768;2023-07-20T06:25:58;101602.28;;;17.18;69.85
81812;BME280;71243;51.848;5.768;2023-07-20T06:28:23;101610.66;;;17.15;69.15
81812;BME280;71243;51.848;5.768;2023-07-20T06:30:49;101611.31;;;17.17;68.45
81812;BME280;71243;51.848;5.768;2023-07-20T06:33:14;101603.59;;;17.22;69.60
81812;BME280;71243;51.848;5.768;2023-07-20T06:35:41;101607.31;;;17.13;66.76
81812;BME280;71243;51.848;5.768;2023-07-20T06:38:06;101613.25;;;17.31;68.40
81812;BME280;71243;51.848;5.768;2023-07-20T06:40:32;101602.22;;;17.34;68.38
81812;BME280;71243;51.848;5.768;2023-07-20T06:42:57;101608.06;;;17.37;68.37
81812;BME280;71243;51.848;5.768;2023-07-20T06:45:22;101607.06;;;17.38;67.86
81812;BME280;71243;51.848;5.768;2023-07-20T06:47:48;101612.88;;;17.50;65.89
81812;BME280;71243;51.848;5.768;2023-07-20T06:50:13;101612.44;;;17.69;66.06
81812;BME280;71243;51.848;5.768;2023-07-20T06:52:38;101608.81;;;17.85;66.13
81812;BME280;71243;51.848;5.768;2023-07-20T06:55:04;101608.91;;;17.99;64.80
81812;BME280;71243;51.848;5.768;2023-07-20T06:57:29;101602.50;;;18.08;64.44
81812;BME280;71243;51.848;5.768;2023-07-20T06:59:54;101601.13;;;18.35;66.13
81812;BME280;71243;51.848;5.768;2023-07-20T07:02:20;101602.28;;;18.40;63.53
81812;BME280;71243;51.848;5.768;2023-07-20T07:04:45;101608.66;;;18.31;61.53
81812;BME280;71243;51.848;5.768;2023-07-20T07:07:10;101605.75;;;18.41;63.33
81812;BME280;71243;51.848;5.768;2023-07-20T07:09:35;101606.38;;;18.66;65.84
81812;BME280;71243;51.848;5.768;2023-07-20T07:12:01;101609.72;;;18.82;65.32
81812;BME280;71243;51.848;5.768;2023-07-20T07:14:26;101612.59;;;18.81;64.33
81812;BME280;71243;51.848;5.768;2023-07-20T07:16:51;101618.97;;;18.94;65.01
81812;BME280;71243;51.848;5.768;2023-07-20T07:19:16;101615.00;;;19.05;64.95
81812;BME280;71243;51.848;5.768;2023-07-20T07:21:42;101611.28;;;18.77;63.61
81812;BME280;71243;51.848;5.768;2023-07-20T07:24:07;101607.69;;;18.84;63.58
81812;BME280;71243;51.848;5.768;2023-07-20T07:26:32;101608.34;;;18.86;61.85
81812;BME280;71243;51.848;5.768;2023-07-20T07:28:58;101612.25;;;19.13;62.49
81812;BME280;71243;51.848;5.768;2023-07-20T07:31:25;101610.47;;;18.91;57.96
81812;BME280;71243;51.848;5.768;2023-07-20T07:33:50;101613.97;;;18.77;58.70
81812;BME280;71243;51.848;5.768;2023-07-20T07:36:15;101621.00;;;18.92;59.79
81812;BME280;71243;51.848;5.768;2023-07-20T07:38:40;101627.75;;;19.03;60.55
81812;BME280;71243;51.848;5.768;2023-07-20T07:41:05;101623.97;;;18.83;60.34
81812;BME280;71243;51.848;5.768;2023-07-20T07:43:31;101621.66;;;18.94;60.91
81812;BME280;71243;51.848;5.768;2023-07-20T07:45:56;101629.59;;;19.17;61.21
81812;BME280;71243;51.848;5.768;2023-07-20T07:48:21;101621.66;;;19.23;59.65
81812;BME280;71243;51.848;5.768;2023-07-20T07:50:46;101618.16;;;19.23;60.41
81812;BME280;71243;51.848;5.768;2023-07-20T07:53:12;101623.28;;;19.32;59.50
81812;BME280;71243;51.848;5.768;2023-07-20T07:55:37;101626.84;;;19.54;59.92
81812;BME280;71243;51.848;5.768;2023-07-20T07:58:02;101628.91;;;19.73;59.91
81812;BME280;71243;51.848;5.768;2023-07-20T08:00:27;101630.44;;;19.61;58.46
81812;BME280;71243;51.848;5.768;2023-07-20T08:02:53;101633.94;;;19.61;58.17
81812;BME280;71243;51.848;5.768;2023-07-20T08:05:18;101629.94;;;19.72;59.06
81812;BME280;71243;51.848;5.768;2023-07-20T08:07:43;101631.50;;;19.81;58.78
81812;BME280;71243;51.848;5.768;2023-07-20T08:10:09;101635.53;;;19.92;56.81
81812;BME280;71243;51.848;5.768;2023-07-20T08:12:34;101640.41;;;20.03;56.54
81812;BME280;71243;51.848;5.768;2023-07-20T08:14:59;101638.63;;;20.10;56.88
81812;BME280;71243;51.848;5.768;2023-07-20T08:17:25;101640.03;;;20.06;58.85
81812;BME280;71243;51.848;5.768;2023-07-20T08:19:50;101641.00;;;19.84;56.30
81812;BME280;71243;51.848;5.768;2023-07-20T08:22:15;101644.94;;;20.02;57.58
81812;BME280;71243;51.848;5.768;2023-07-20T08:24:43;101650.53;;;19.86;55.96
81812;BME280;71243;51.848;5.768;2023-07-20T08:27:09;101646.81;;;19.87;55.42
81812;BME280;71243;51.848;5.768;2023-07-20T08:29:35;101649.81;;;19.78;56.47
81812;BME280;71243;51.848;5.768;2023-07-20T08:32:01;101646.38;;;19.48;56.58
81812;BME280;71243;51.848;5.768;2023-07-20T08:34:26;101649.75;;;19.71;56.43
81812;BME280;71243;51.848;5.768;2023-07-20T08:36:52;101649.88;;;19.84;59.00
81812;BME280;71243;51.848;5.768;2023-07-20T08:39:17;101649.06;;;19.84;54.50
81812;BME280;71243;51.848;5.768;2023-07-20T08:41:43;101643.59;;;19.92;57.39
81812;BME280;71243;51.848;5.768;2023-07-20T08:44:10;101638.28;;;19.98;55.66
81812;BME280;71243;51.848;5.768;2023-07-20T08:46:38;101637.94;;;20.22;55.64
81812;BME280;71243;51.848;5.768;2023-07-20T08:49:03;101633.41;;;20.44;55.30
81812;BME280;71243;51.848;5.768;2023-07-20T08:51:30;101634.41;;;20.64;53.98
81812;BME280;71243;51.848;5.768;2023-07-20T08:53:56;101636.94;;;20.72;52.60
81812;BME280;71243;51.848;5.768;2023-07-20T08:56:23;101640.28;;;20.74;52.02
81812;BME280;71243;51.848;5.768;2023-07-20T08:58:52;101641.00;;;20.19;51.69
81812;BME280;71243;51.848;5.768;2023-07-20T09:01:19;101643.91;;;20.39;53.77
81812;BME280;71243;51.848;5.768;2023-07-20T09:03:45;101643.94;;;20.45;52.37
81812;BME280;71243;51.848;5.768;2023-07-20T09:06:10;101631.28;;;20.60;51.10
81812;BME280;71243;51.848;5.768;2023-07-20T09:08:39;101636.69;;;20.67;51.96
81812;BME280;71243;51.848;5.768;2023-07-20T09:11:05;101642.03;;;20.60;50.23
81812;BME280;71243;51.848;5.768;2023-07-20T09:13:32;101643.13;;;20.66;51.27
81812;BME280;71243;51.848;5.768;2023-07-20T09:15:58;101637.19;;;20.77;51.93
81812;BME280;71243;51.848;5.768;2023-07-20T09:18:28;101638.81;;;20.71;50.10
81812;BME280;71243;51.848;5.768;2023-07-20T09:21:05;101639.50;;;20.80;51.62
81812;BME280;71243;51.848;5.768;2023-07-20T09:23:37;101639.84;;;20.70;50.26
81812;BME280;71243;51.848;5.768;2023-07-20T09:26:14;101626.44;;;20.77;53.59
81812;BME280;71243;51.848;5.768;2023-07-20T09:28:44;101630.16;;;20.76;51.89
81812;BME280;71243;51.848;5.768;2023-07-20T09:31:17;101628.69;;;20.73;51.27
81812;BME280;71243;51.848;5.768;2023-07-20T09:33:42;101633.91;;;20.75;51.84
81812;BME280;71243;51.848;5.768;2023-07-20T09:36:09;101631.91;;;20.90;51.19
81812;BME280;71243;51.848;5.768;2023-07-20T09:38:34;101626.75;;;21.16;50.78
81812;BME280;71243;51.848;5.768;2023-07-20T09:40:59;101621.22;;;21.24;48.68
81812;BME280;71243;51.848;5.768;2023-07-20T09:43:28;101619.66;;;21.09;48.31
81812;BME280;71243;51.848;5.768;2023-07-20T09:45:57;101625.88;;;20.82;47.04
81812;BME280;71243;51.848;5.768;2023-07-20T09:48:24;101625.22;;;20.80;50.04
81812;BME280;71243;51.848;5.768;2023-07-20T09:50:50;101618.31;;;20.98;50.74
81812;BME280;71243;51.848;5.768;2023-07-20T09:53:17;101622.88;;;21.25;49.55
81812;BME280;71243;51.848;5.768;2023-07-20T09:55:44;101619.22;;;21.46;49.05
81812;BME280;71243;51.848;5.768;2023-07-20T09:58:09;101613.31;;;21.63;47.72
81812;BME280;71243;51.848;5.768;2023-07-20T10:00:36;101613.81;;;21.33;48.04
81812;BME280;71243;51.848;5.768;2023-07-20T10:03:03;101613.84;;;21.46;48.06
81812;BME280;71243;51.848;5.768;2023-07-20T10:05:33;101609.97;;;21.61;49.18
81812;BME280;71243;51.848;5.768;2023-07-20T10:08:01;101621.53;;;21.49;47.21
81812;BME280;71243;51.848;5.768;2023-07-20T10:10:27;101613.72;;;21.67;47.83
81812;BME280;71243;51.848;5.768;2023-07-20T10:12:52;101606.72;;;21.72;47.89
81812;BME280;71243;51.848;5.768;2023-07-20T10:15:20;101602.06;;;21.94;48.36
81812;BME280;71243;51.848;5.768;2023-07-20T10:20:49;101603.59;;;21.69;48.11
81812;BME280;71243;51.848;5.768;2023-07-20T10:23:16;101602.84;;;21.88;48.71
81812;BME280;71243;51.848;5.768;2023-07-20T10:25:42;101599.75;;;21.85;46.57
81812;BME280;71243;51.848;5.768;2023-07-20T10:28:10;101598.56;;;22.00;50.49
81812;BME280;71243;51.848;5.768;2023-07-20T10:30:36;101595.25;;;21.98;48.07
81812;BME280;71243;51.848;5.768;2023-07-20T10:33:05;101602.44;;;21.85;47.27
81812;BME280;71243;51.848;5.768;2023-07-20T10:35:31;101606.84;;;22.05;46.99
81812;BME280;71243;51.848;5.768;2023-07-20T10:38:03;101610.16;;;22.27;46.29
81812;BME280;71243;51.848;5.768;2023-07-20T10:40:33;101600.06;;;22.55;45.57
81812;BME280;71243;51.848;5.768;2023-07-20T10:43:00;101597.97;;;22.76;46.17
81812;BME280;71243;51.848;5.768;2023-07-20T10:48:03;101596.72;;;22.53;43.51
81812;BME280;71243;51.848;5.768;2023-07-20T10:50:28;101599.19;;;22.41;44.38
81812;BME280;71243;51.848;5.768;2023-07-20T10:53:16;101598.16;;;22.49;45.38
81812;BME280;71243;51.848;5.768;2023-07-20T10:55:42;101590.09;;;22.62;44.74
81812;BME280;71243;51.848;5.768;2023-07-20T10:58:12;101592.78;;;22.75;45.50
81812;BME280;71243;51.848;5.768;2023-07-20T11:00:55;101593.84;;;22.74;45.58
81812;BME280;71243;51.848;5.768;2023-07-20T11:03:32;101585.28;;;22.90;44.37
81812;BME280;71243;51.848;5.768;2023-07-20T11:05:57;101582.78;;;23.02;44.86
81812;BME280;71243;51.848;5.768;2023-07-20T11:08:42;101580.31;;;23.00;43.50
81812;BME280;71243;51.848;5.768;2023-07-20T11:11:27;101578.50;;;22.81;43.77
81812;BME280;71243;51.848;5.768;2023-07-20T11:14:01;101585.31;;;22.77;43.62
81812;BME280;71243;51.848;5.768;2023-07-20T11:18:58;101590.63;;;23.10;42.86
81812;BME280;71243;51.848;5.768;2023-07-20T11:21:24;101587.97;;;23.03;43.20
81812;BME280;71243;51.848;5.768;2023-07-20T11:23:51;101579.97;;;22.70;43.70
81812;BME280;71243;51.848;5.768;2023-07-20T11:26:17;101574.13;;;22.73;45.16
81812;BME280;71243;51.848;5.768;2023-07-20T11:28:42;101581.81;;;22.70;45.40
81812;BME280;71243;51.848;5.768;2023-07-20T11:31:07;101567.06;;;22.85;45.35
81812;BME280;71243;51.848;5.768;2023-07-20T11:33:32;101574.34;;;22.78;44.96
81812;BME280;71243;51.848;5.768;2023-07-20T11:35:57;101574.34;;;22.65;45.45
81812;BME280;71243;51.848;5.768;2023-07-20T11:38:24;101572.47;;;22.79;44.55
81812;BME280;71243;51.848;5.768;2023-07-20T11:40:49;101561.25;;;22.88;44.58
81812;BME280;71243;51.848;5.768;2023-07-20T11:43:14;101562.53;;;22.47;44.06
81812;BME280;71243;51.848;5.768;2023-07-20T11:45:40;101564.00;;;22.30;44.99
81812;BME280;71243;51.848;5.768;2023-07-20T11:48:05;101564.00;;;22.49;44.78
81812;BME280;71243;51.848;5.768;2023-07-20T11:50:30;101554.03;;;22.43;42.87
81812;BME280;71243;51.848;5.768;2023-07-20T11:52:56;101550.13;;;22.26;43.13
81812;BME280;71243;51.848;5.768;2023-07-20T11:55:21;101553.00;;;22.38;45.03
81812;BME280;71243;51.848;5.768;2023-07-20T11:58:06;101548.44;;;22.25;46.38
81812;BME280;71243;51.848;5.768;2023-07-20T12:00:33;101557.75;;;21.97;46.49
81812;BME280;71243;51.848;5.768;2023-07-20T12:02:58;101548.22;;;21.94;47.66
81812;BME280;71243;51.848;5.768;2023-07-20T12:05:24;101544.72;;;22.00;46.12
81812;BME280;71243;51.848;5.768;2023-07-20T12:07:49;101550.31;;;22.05;46.40
81812;BME280;71243;51.848;5.768;2023-07-20T12:10:15;101547.44;;;22.26;45.74
81812;BME280;71243;51.848;5.768;2023-07-20T12:12:42;101552.59;;;22.47;46.18
81812;BME280;71243;51.848;5.768;2023-07-20T12:15:17;101540.94;;;22.86;44.84
81812;BME280;71243;51.848;5.768;2023-07-20T12:17:45;101542.38;;;22.95;43.74
81812;BME280;71243;51.848;5.768;2023-07-20T12:20:11;101536.31;;;23.06;44.58
81812;BME280;71243;51.848;5.768;2023-07-20T12:22:40;101538.00;;;22.94;45.57
81812;BME280;71243;51.848;5.768;2023-07-20T12:25:06;101538.34;;;23.30;44.41
81812;BME280;71243;51.848;5.768;2023-07-20T12:27:31;101538.94;;;23.26;44.98
81812;BME280;71243;51.848;5.768;2023-07-20T12:29:56;101535.56;;;23.43;41.84
81812;BME280;71243;51.848;5.768;2023-07-20T12:32:22;101535.38;;;23.76;41.56
81812;BME280;71243;51.848;5.768;2023-07-20T12:34:47;101534.94;;;24.10;40.35
81812;BME280;71243;51.848;5.768;2023-07-20T12:37:12;101524.91;;;24.17;38.91
81812;BME280;71243;51.848;5.768;2023-07-20T12:39:37;101534.44;;;24.44;39.17
81812;BME280;71243;51.848;5.768;2023-07-20T12:42:03;101529.97;;;24.56;38.70
81812;BME280;71243;51.848;5.768;2023-07-20T12:44:28;101537.00;;;24.82;37.93
81812;BME280;71243;51.848;5.768;2023-07-20T12:46:53;101524.25;;;24.89;36.79
81812;BME280;71243;51.848;5.768;2023-07-20T12:49:18;101524.53;;;24.99;37.58
81812;BME280;71243;51.848;5.768;2023-07-20T12:51:44;101527.25;;;24.99;38.11
81812;BME280;71243;51.848;5.768;2023-07-20T12:54:09;101524.31;;;24.82;38.49
81812;BME280;71243;51.848;5.768;2023-07-20T12:56:34;101524.16;;;24.95;39.46
81812;BME280;71243;51.848;5.768;2023-07-20T12:58:59;101521.38;;;24.41;41.66
81812;BME280;71243;51.848;5.768;2023-07-20T13:01:25;101517.19;;;24.63;41.61